createdAt,value
2023-12-30T00:04:55.290Z,3.80
2023-12-30T00:09:58.128Z,4.60
2023-12-30T00:15:00.958Z,2.83
2023-12-30T00:20:04.068Z,3.88
2023-12-30T00:25:08.805Z,4.57
2023-12-30T00:30:16.791Z,4.37
2023-12-30T00:35:19.844Z,5.82
2023-12-30T00:40:26.836Z,4.10
2023-12-30T00:45:30.663Z,4.95
2023-12-30T00:50:33.522Z,3.67
2023-12-30T00:55:36.320Z,5.13
2023-12-30T01:00:39.159Z,4.07
2023-12-30T01:05:42.173Z,4.03
2023-12-30T01:10:45.035Z,4.70
2023-12-30T01:15:48.109Z,2.80
2023-12-30T01:20:50.927Z,2.50
2023-12-30T01:25:53.842Z,4.78
2023-12-30T01:30:56.935Z,3.60
2023-12-30T01:35:59.821Z,2.83
2023-12-30T01:41:02.581Z,4.90
2023-12-30T01:46:09.054Z,3.10
2023-12-30T01:51:24.324Z,3.08
2023-12-30T01:56:29.403Z,3.73
2023-12-30T02:01:32.773Z,4.53
2023-12-30T02:06:35.616Z,5.65
2023-12-30T02:11:39.382Z,3.03
2023-12-30T02:16:42.304Z,5.82
2023-12-30T02:21:45.272Z,6.17
2023-12-30T02:26:48.567Z,6.70
2023-12-30T02:31:51.881Z,5.93
2023-12-30T02:36:54.776Z,3.60
2023-12-30T02:41:57.591Z,4.40
2023-12-30T02:47:00.263Z,4.30
2023-12-30T02:52:03.178Z,5.25
2023-12-30T02:57:07.350Z,4.63
2023-12-30T03:02:10.298Z,3.87
2023-12-30T03:07:13.098Z,3.35
2023-12-30T03:12:16.737Z,5.97
2023-12-30T03:17:19.868Z,5.07
2023-12-30T03:22:22.655Z,4.68
2023-12-30T03:27:25.423Z,4.17
2023-12-30T03:32:30.069Z,4.50
2023-12-30T03:37:32.922Z,3.77
2023-12-30T03:42:35.733Z,3.15
2023-12-30T03:47:38.576Z,4.65
2023-12-30T03:52:41.284Z,3.77
2023-12-30T03:57:44.242Z,3.55
2023-12-30T04:02:48.733Z,3.97
2023-12-30T04:07:52.032Z,5.55
2023-12-30T04:12:54.843Z,3.85
2023-12-30T04:17:57.938Z,2.63
2023-12-30T04:23:01.314Z,3.50
2023-12-30T04:28:04.772Z,3.60
2023-12-30T04:33:08.198Z,3.03
2023-12-30T04:38:12.129Z,3.63
2023-12-30T04:43:15.110Z,3.47
2023-12-30T04:48:18.693Z,2.78
2023-12-30T04:53:21.686Z,4.23
2023-12-30T04:58:24.883Z,3.88
2023-12-30T05:03:27.700Z,4.30
2023-12-30T05:08:31.242Z,7.53
2023-12-30T05:13:34.097Z,3.97
2023-12-30T05:18:37.170Z,3.20
2023-12-30T05:23:40.078Z,3.95
2023-12-30T05:28:43.105Z,3.15
2023-12-30T05:33:45.948Z,3.90
2023-12-30T05:38:49.242Z,3.25
2023-12-30T05:43:52.695Z,4.63
2023-12-30T05:48:56.570Z,4.43
2023-12-30T05:53:59.379Z,5.05
2023-12-30T05:59:02.236Z,4.00
2023-12-30T06:04:05.280Z,3.03
2023-12-30T06:09:09.019Z,4.77
2023-12-30T06:14:11.802Z,4.20
2023-12-30T06:19:17.974Z,4.45
2023-12-30T06:24:21.100Z,5.30
2023-12-30T06:29:24.736Z,6.50
2023-12-30T06:34:27.500Z,5.00
2023-12-30T06:39:30.423Z,4.30
2023-12-30T06:44:33.178Z,4.43
2023-12-30T06:49:40.762Z,3.03
2023-12-30T06:54:43.620Z,5.13
2023-12-30T06:59:46.636Z,3.77
2023-12-30T07:04:49.896Z,3.70
2023-12-30T07:09:52.980Z,3.80
2023-12-30T07:14:56.243Z,4.43
2023-12-30T07:20:00.548Z,4.60
2023-12-30T07:25:03.711Z,2.73
2023-12-30T07:30:07.932Z,4.60
2023-12-30T07:35:10.763Z,4.70
2023-12-30T07:40:14.726Z,5.13
2023-12-30T07:45:17.817Z,4.10
2023-12-30T07:50:20.830Z,4.97
2023-12-30T07:55:25.901Z,3.83
2023-12-30T08:00:28.828Z,5.63
2023-12-30T08:05:31.905Z,3.80
2023-12-30T08:10:35.017Z,4.28
2023-12-30T08:15:37.887Z,3.90
2023-12-30T08:20:40.718Z,3.97
2023-12-30T08:25:43.761Z,3.10
2023-12-30T08:30:48.390Z,4.50
2023-12-30T08:35:51.359Z,5.50
2023-12-30T08:40:54.215Z,4.00
2023-12-30T08:45:57.483Z,3.90
2023-12-30T08:51:00.804Z,4.30
2023-12-30T08:56:04.265Z,3.63
2023-12-30T09:01:07.753Z,6.63
2023-12-30T09:06:10.751Z,4.50
2023-12-30T09:11:24.246Z,3.83
2023-12-30T09:16:27.582Z,4.50
2023-12-30T09:21:31.191Z,3.47
2023-12-30T09:26:34.114Z,3.72
2023-12-30T09:31:36.985Z,3.20
2023-12-30T09:36:40.169Z,4.07
2023-12-30T09:41:43.032Z,5.47
2023-12-30T09:46:48.919Z,3.80
2023-12-30T09:51:51.921Z,3.15
2023-12-30T09:56:54.874Z,3.33
2023-12-30T10:02:01.728Z,3.53
2023-12-30T10:07:06.280Z,4.78
2023-12-30T10:12:11.502Z,3.70
2023-12-30T10:17:15.155Z,2.85
2023-12-30T10:22:18.392Z,3.77
2023-12-30T10:27:22.574Z,5.38
2023-12-30T10:32:25.615Z,3.95
2023-12-30T10:37:30.625Z,3.50
2023-12-30T10:42:33.493Z,4.22
2023-12-30T10:47:44.151Z,3.57
2023-12-30T10:52:53.698Z,3.53
2023-12-30T10:58:15.135Z,3.38
2023-12-30T11:03:18.055Z,3.00
2023-12-30T11:08:21.776Z,2.83
2023-12-30T11:13:25.514Z,4.00
2023-12-30T11:18:51.214Z,5.28
2023-12-30T11:24:04.856Z,3.90
2023-12-30T11:29:21.371Z,3.30
2023-12-30T11:34:26.153Z,3.03
2023-12-30T11:39:31.991Z,3.23
2023-12-30T11:44:35.488Z,3.75
2023-12-30T11:49:38.873Z,4.10
2023-12-30T11:54:42.149Z,3.20
2023-12-30T11:59:45.691Z,3.75
2023-12-30T12:04:48.728Z,4.03
2023-12-30T12:09:51.749Z,3.92
2023-12-30T12:14:55.160Z,4.47
2023-12-30T12:19:59.122Z,5.27
2023-12-30T12:25:05.749Z,4.40
2023-12-30T12:30:11.018Z,4.77
2023-12-30T12:35:14.134Z,3.80
2023-12-30T12:40:17.626Z,4.28
2023-12-30T12:45:21.042Z,3.43
2023-12-30T12:50:23.780Z,4.35
2023-12-30T12:55:26.747Z,2.20
2023-12-30T13:00:29.634Z,2.20
2023-12-30T13:05:33.050Z,2.28
2023-12-30T13:10:47.247Z,2.40
2023-12-30T13:15:50.636Z,4.00
2023-12-30T13:20:53.826Z,3.23
2023-12-30T13:25:56.869Z,1.98
2023-12-30T13:30:59.856Z,2.38
2023-12-30T13:36:09.057Z,2.63
2023-12-30T13:41:12.259Z,2.92
2023-12-30T13:46:38.177Z,2.57
2023-12-30T13:51:56.550Z,3.20
2023-12-30T13:57:13.438Z,2.33
2023-12-30T14:02:19.538Z,4.13
2023-12-30T14:07:30.176Z,3.40
2023-12-30T14:12:33.511Z,2.93
2023-12-30T14:17:37.323Z,3.65
2023-12-30T14:22:40.753Z,2.95
2023-12-30T14:27:45.227Z,3.73
2023-12-30T14:32:48.145Z,5.18
2023-12-30T14:37:51.341Z,3.50
2023-12-30T14:42:54.197Z,4.25
2023-12-30T14:47:58.377Z,2.17
2023-12-30T14:53:01.669Z,5.70
2023-12-30T14:58:06.244Z,5.45
2023-12-30T15:03:09.378Z,4.10
2023-12-30T15:08:13.129Z,4.95
2023-12-30T15:13:16.100Z,5.65
2023-12-30T15:18:21.334Z,5.23
2023-12-30T15:23:24.282Z,4.75
2023-12-30T15:28:27.154Z,5.47
2023-12-30T15:33:31.769Z,6.05
2023-12-30T15:38:34.619Z,8.25
2023-12-30T15:43:37.828Z,8.53
2023-12-30T15:48:40.686Z,11.48
2023-12-30T15:53:43.643Z,9.83
2023-12-30T15:58:46.638Z,7.93
2023-12-30T16:03:49.782Z,9.35
2023-12-30T16:08:53.777Z,19.43
2023-12-30T16:13:57.873Z,21.73
2023-12-30T16:19:01.365Z,16.47
2023-12-30T16:24:05.199Z,17.05
2023-12-30T16:29:08.069Z,13.18
2023-12-30T16:34:12.160Z,14.93
2023-12-30T16:39:15.213Z,19.25
2023-12-30T16:44:18.099Z,15.13
2023-12-30T16:49:21.055Z,16.48
2023-12-30T16:54:23.952Z,11.73
2023-12-30T16:59:27.123Z,8.63
2023-12-30T17:04:29.983Z,12.05
2023-12-30T17:09:32.919Z,17.80
2023-12-30T17:14:35.861Z,11.90
2023-12-30T17:19:39.150Z,15.02
2023-12-30T17:24:42.158Z,12.03
2023-12-30T17:29:44.922Z,13.00
2023-12-30T17:34:48.071Z,18.73
2023-12-30T17:39:51.070Z,21.30
2023-12-30T17:44:54.216Z,25.65
2023-12-30T17:49:57.704Z,17.97
2023-12-30T17:55:01.723Z,14.85
2023-12-30T18:00:05.188Z,16.30
2023-12-30T18:05:09.436Z,14.63
2023-12-30T18:10:12.369Z,12.15
2023-12-30T18:15:16.155Z,14.37
2023-12-30T18:20:19.478Z,19.15
2023-12-30T18:25:22.467Z,20.43
2023-12-30T18:30:25.342Z,14.43
2023-12-30T18:35:28.281Z,14.15
2023-12-30T18:40:31.255Z,16.20
2023-12-30T18:45:34.625Z,18.75
2023-12-30T18:50:37.425Z,33.73
2023-12-30T18:55:41.093Z,33.33
2023-12-30T19:00:43.985Z,18.75
2023-12-30T19:05:47.016Z,28.93
2023-12-30T19:10:50.324Z,23.27
2023-12-30T19:15:53.383Z,10.20
2023-12-30T19:20:57.497Z,22.60
2023-12-30T19:26:00.426Z,14.02
2023-12-30T19:31:03.419Z,14.97
2023-12-30T19:36:06.477Z,13.18
2023-12-30T19:41:09.891Z,14.43
2023-12-30T19:46:13.077Z,12.68
2023-12-30T19:51:15.985Z,11.65
2023-12-30T19:56:24.635Z,14.03
2023-12-30T20:01:27.580Z,16.88
2023-12-30T20:06:30.549Z,9.90
2023-12-30T20:11:33.763Z,10.02
2023-12-30T20:16:36.657Z,7.75
2023-12-30T20:21:39.888Z,9.27
2023-12-30T20:26:44.998Z,8.93
2023-12-30T20:31:47.822Z,11.53
2023-12-30T20:36:51.053Z,8.68
2023-12-30T20:41:54.147Z,12.65
2023-12-30T20:46:57.076Z,14.53
2023-12-30T20:52:00.399Z,12.75
2023-12-30T20:57:07.206Z,9.97
2023-12-30T21:02:12.829Z,9.80
2023-12-30T21:07:18.996Z,10.73
2023-12-30T21:12:27.821Z,12.60
2023-12-30T21:17:33.779Z,10.40
2023-12-30T21:22:39.352Z,5.57
2023-12-30T21:27:44.408Z,7.35
2023-12-30T21:32:53.381Z,9.02
2023-12-30T21:37:57.045Z,8.03
2023-12-30T21:43:02.548Z,12.38
2023-12-30T21:48:09.803Z,9.37
2023-12-30T21:53:18.090Z,9.82
2023-12-30T21:58:23.612Z,11.05
2023-12-30T22:03:29.456Z,12.83
2023-12-30T22:08:36.342Z,9.88
2023-12-30T22:13:41.807Z,10.27
2023-12-30T22:18:47.410Z,8.88
2023-12-30T22:23:52.884Z,10.88
2023-12-30T22:28:57.948Z,11.43
2023-12-30T22:34:02.701Z,10.40
2023-12-30T22:39:07.993Z,13.10
2023-12-30T22:44:13.100Z,13.13
2023-12-30T22:49:16.661Z,11.85
2023-12-30T22:54:19.506Z,14.77
2023-12-30T22:59:22.286Z,10.35
2023-12-30T23:04:25.084Z,9.33
2023-12-30T23:09:27.916Z,12.27
2023-12-30T23:14:30.793Z,8.93
2023-12-30T23:19:33.633Z,12.83
2023-12-30T23:24:36.495Z,10.77
2023-12-30T23:29:39.512Z,10.23
2023-12-30T23:34:49.000Z,12.60
2023-12-30T23:39:54.124Z,11.15
2023-12-30T23:44:56.843Z,12.93
2023-12-30T23:50:00.015Z,11.63
2023-12-30T23:55:04.632Z,11.40
